Weather at St Louis Lambert International Airport

Public forecast

Using degrees Fahrenheit for public forecast. Weather courtesy of forecast.io.

Current aviation weather report (METAR) for St Louis Lambert International Airport

Retrieved 2020/10/26 22:58 UTC (42 minutes ago):

KSTL 262258Z 02006KT 7SM -RA BKN008 BKN020 OVC055 03/01 A3026 RMK AO2 P0000 T00330011

Aviation forecast (TAF) for St Louis Lambert International Airport

Retrieved 2020/10/26 18:39 UTC (5 hours ago):

TAF KSTL 261737Z 2618/2724 36010KT 3SM -RA BR OVC007 TEMPO 2618/2622 2SM RA BR OVC006 FM270100 02007KT P6SM VCSH OVC008 FM271300 01006KT P6SM OVC013 FM272100 01005KT P6SM OVC020